createdAt,value
2018-03-22T00:02:13.244Z,14.43
2018-03-22T00:04:55.569Z,14.18
2018-03-22T00:07:32.697Z,14.23
2018-03-22T00:10:01.768Z,12.32
2018-03-22T00:12:41.352Z,12.43
2018-03-22T00:15:11.374Z,12.88
2018-03-22T00:20:15.673Z,16.80
2018-03-22T00:22:49.265Z,14.95
2018-03-22T00:25:18.335Z,14.07
2018-03-22T00:27:47.408Z,13.00
2018-03-22T00:30:17.459Z,15.18
2018-03-22T00:32:46.536Z,12.90
2018-03-22T00:35:15.707Z,15.85
2018-03-22T00:37:44.779Z,12.93
2018-03-22T00:40:13.896Z,13.25
2018-03-22T00:43:01.059Z,12.37
2018-03-22T00:45:35.803Z,12.15
2018-03-22T00:48:05.742Z,12.65
2018-03-22T00:50:34.795Z,10.40
2018-03-22T00:53:03.865Z,11.95
2018-03-22T00:58:16.178Z,15.70
2018-03-22T01:00:45.284Z,12.40
2018-03-22T01:05:51.621Z,15.55
2018-03-22T01:08:20.700Z,16.00
2018-03-22T01:10:53.538Z,14.80
2018-03-22T01:13:22.596Z,15.35
2018-03-22T01:15:51.672Z,12.37
2018-03-22T01:18:22.600Z,15.02
2018-03-22T01:20:51.672Z,11.50
2018-03-22T01:23:21.233Z,15.35
2018-03-22T01:25:55.915Z,12.37
2018-03-22T01:28:24.984Z,11.65
2018-03-22T01:30:54.177Z,11.10
2018-03-22T01:33:23.230Z,14.45
2018-03-22T01:38:27.499Z,15.40
2018-03-22T01:40:56.569Z,11.95
2018-03-22T01:43:25.711Z,11.95
2018-03-22T01:48:36.917Z,15.93
2018-03-22T01:53:55.894Z,14.68
2018-03-22T01:56:24.963Z,13.88
2018-03-22T01:58:57.043Z,13.52
2018-03-22T02:01:26.220Z,12.88
2018-03-22T02:03:55.295Z,10.15
2018-03-22T02:06:32.389Z,10.73
2018-03-22T02:09:01.439Z,9.77
2018-03-22T02:11:32.460Z,13.73
2018-03-22T02:14:01.619Z,13.27
2018-03-22T02:16:30.867Z,11.23
2018-03-22T02:18:59.939Z,10.27
2018-03-22T02:21:34.574Z,10.95
2018-03-22T02:24:03.710Z,10.52
2018-03-22T02:26:32.789Z,9.65
2018-03-22T02:29:01.830Z,9.15
2018-03-22T02:31:31.001Z,9.32
2018-03-22T02:34:00.039Z,8.93
2018-03-22T02:36:44.701Z,9.07
2018-03-22T02:39:14.738Z,9.40
2018-03-22T02:41:44.785Z,9.43
2018-03-22T02:44:17.547Z,10.15
2018-03-22T02:49:21.816Z,12.60
2018-03-22T02:51:50.878Z,11.45
2018-03-22T02:54:27.530Z,10.32
2018-03-22T02:56:56.591Z,10.35
2018-03-22T02:59:44.703Z,10.88
2018-03-22T03:02:15.715Z,10.48
2018-03-22T03:04:44.787Z,11.35
2018-03-22T03:07:13.903Z,10.05
2018-03-22T03:09:42.939Z,10.63
2018-03-22T03:12:11.987Z,13.68
2018-03-22T03:14:45.899Z,13.23
2018-03-22T03:17:14.965Z,11.82
2018-03-22T03:19:45.939Z,10.30
2018-03-22T03:22:16.072Z,9.25
2018-03-22T03:27:20.783Z,13.00
2018-03-22T03:29:50.104Z,10.70
2018-03-22T03:32:19.203Z,13.75
2018-03-22T03:34:48.239Z,11.73
2018-03-22T03:37:17.359Z,10.07
2018-03-22T03:39:51.760Z,12.60
2018-03-22T03:42:20.967Z,11.60
2018-03-22T03:47:25.252Z,13.13
2018-03-22T03:50:01.978Z,11.48
2018-03-22T03:52:52.652Z,10.38
2018-03-22T03:55:21.790Z,11.57
2018-03-22T03:57:54.951Z,9.32
2018-03-22T04:00:24.191Z,9.60
2018-03-22T04:05:28.718Z,11.35
2018-03-22T04:08:03.144Z,10.05
2018-03-22T04:10:32.456Z,8.15
2018-03-22T04:13:06.119Z,9.02
2018-03-22T04:15:35.326Z,9.80
2018-03-22T04:18:07.586Z,10.45
2018-03-22T04:20:36.896Z,11.05
2018-03-22T04:23:05.955Z,12.63
2018-03-22T04:25:35.904Z,11.45
2018-03-22T04:28:06.019Z,10.27
2018-03-22T04:30:35.388Z,11.95
2018-03-22T04:33:05.396Z,10.35
2018-03-22T04:35:35.396Z,10.18
2018-03-22T04:38:09.982Z,9.00
2018-03-22T04:40:39.023Z,10.15
2018-03-22T04:43:12.474Z,8.57
2018-03-22T04:45:41.536Z,10.52
2018-03-22T04:50:46.337Z,11.02
2018-03-22T04:53:33.529Z,11.85
2018-03-22T04:56:26.919Z,10.40
2018-03-22T04:58:56.183Z,9.40
2018-03-22T05:01:32.855Z,9.48
2018-03-22T05:04:05.611Z,10.18
2018-03-22T05:06:34.745Z,8.35
2018-03-22T05:09:16.036Z,11.40
2018-03-22T05:11:45.260Z,10.60
2018-03-22T05:14:25.139Z,12.15
2018-03-22T05:19:29.403Z,12.85
2018-03-22T05:21:59.495Z,10.35
2018-03-22T05:24:33.003Z,9.52
2018-03-22T05:27:06.041Z,9.45
2018-03-22T05:29:35.088Z,9.75
2018-03-22T05:34:39.729Z,11.73
2018-03-22T05:37:08.768Z,9.75
2018-03-22T05:39:37.824Z,10.35
2018-03-22T05:44:42.088Z,11.27
2018-03-22T05:47:28.927Z,9.57
2018-03-22T05:49:58.000Z,8.95
2018-03-22T05:52:30.839Z,9.68
2018-03-22T05:55:03.660Z,8.43
2018-03-22T05:57:33.608Z,8.98
2018-03-22T06:00:02.664Z,9.05
2018-03-22T06:02:55.270Z,12.05
2018-03-22T06:05:25.302Z,9.95
2018-03-22T06:07:56.286Z,9.90
2018-03-22T06:10:28.719Z,8.90
2018-03-22T06:12:57.772Z,8.85
2018-03-22T06:15:28.197Z,8.23
2018-03-22T06:17:57.246Z,8.52
2018-03-22T06:20:26.328Z,9.63
2018-03-22T06:22:55.571Z,8.18
2018-03-22T06:25:24.624Z,8.90
2018-03-22T06:27:53.684Z,9.77
2018-03-22T06:30:26.838Z,9.02
2018-03-22T06:32:56.123Z,8.25
2018-03-22T06:35:34.970Z,8.52
2018-03-22T06:38:05.939Z,8.10
2018-03-22T06:40:36.107Z,7.90
2018-03-22T06:43:05.187Z,9.15
2018-03-22T06:45:38.316Z,8.32
2018-03-22T06:48:07.545Z,9.60
2018-03-22T06:50:38.856Z,8.32
2018-03-22T06:53:07.932Z,9.40
2018-03-22T06:55:38.012Z,8.88
2018-03-22T07:00:42.304Z,10.65
2018-03-22T07:03:16.163Z,11.33
2018-03-22T07:05:45.413Z,11.15
2018-03-22T07:08:15.211Z,8.97
2018-03-22T07:10:45.163Z,8.80
2018-03-22T07:13:14.291Z,10.80
2018-03-22T07:15:44.185Z,10.07
2018-03-22T07:18:13.902Z,10.82
2018-03-22T07:20:43.045Z,10.65
2018-03-22T07:23:12.430Z,9.27
2018-03-22T07:25:41.462Z,10.95
2018-03-22T07:30:45.979Z,10.88
2018-03-22T07:33:32.455Z,10.23
2018-03-22T07:38:39.856Z,10.30
2018-03-22T07:41:13.030Z,10.73
2018-03-22T07:43:42.894Z,9.33
2018-03-22T07:46:15.162Z,11.30
2018-03-22T07:48:44.529Z,8.57
2018-03-22T07:51:13.591Z,10.77
2018-03-22T07:53:43.023Z,12.00
2018-03-22T07:56:14.109Z,9.70
2018-03-22T07:58:43.176Z,10.25
2018-03-22T08:03:49.000Z,10.15
2018-03-22T08:06:28.315Z,10.57
2018-03-22T08:08:57.795Z,9.50
2018-03-22T08:11:26.847Z,10.07
2018-03-22T08:13:55.912Z,10.10
2018-03-22T08:19:01.693Z,9.85
2018-03-22T08:21:33.787Z,10.10
2018-03-22T08:24:04.813Z,8.70
2018-03-22T08:26:35.707Z,10.02
2018-03-22T08:31:41.025Z,9.80
2018-03-22T08:34:13.814Z,10.75
2018-03-22T08:36:43.048Z,8.90
2018-03-22T08:39:12.118Z,10.07
2018-03-22T08:41:41.150Z,8.77
2018-03-22T08:44:13.899Z,10.50
2018-03-22T08:46:42.931Z,8.60
2018-03-22T08:49:12.535Z,7.70
2018-03-22T08:51:41.583Z,9.15
2018-03-22T08:54:22.958Z,8.27
2018-03-22T08:56:51.999Z,8.80
2018-03-22T08:59:26.646Z,9.30
2018-03-22T09:01:55.695Z,8.00
2018-03-22T09:07:00.786Z,9.70
2018-03-22T09:09:35.526Z,9.63
2018-03-22T09:12:04.628Z,7.90
2018-03-22T09:14:34.681Z,7.87
2018-03-22T09:17:03.717Z,8.43
2018-03-22T09:19:33.704Z,7.10
2018-03-22T09:22:04.550Z,8.03
2018-03-22T09:24:33.576Z,8.03
2018-03-22T09:29:40.575Z,9.60
2018-03-22T09:32:09.611Z,9.63
2018-03-22T09:37:14.019Z,9.45
2018-03-22T09:39:43.066Z,8.97
2018-03-22T09:42:14.226Z,8.40
2018-03-22T09:44:47.151Z,9.55
2018-03-22T09:47:17.263Z,10.13
2018-03-22T09:49:46.554Z,9.47
2018-03-22T09:52:24.093Z,9.33
2018-03-22T09:54:56.645Z,8.10
2018-03-22T09:57:27.664Z,8.47
2018-03-22T10:00:01.055Z,8.10
2018-03-22T10:02:32.683Z,9.27
2018-03-22T10:07:40.253Z,8.43
2018-03-22T10:10:11.182Z,8.85
2018-03-22T10:12:40.220Z,7.80
2018-03-22T10:15:10.283Z,8.13
2018-03-22T10:17:42.202Z,8.60
2018-03-22T10:20:13.074Z,8.20
2018-03-22T10:25:19.606Z,9.07
2018-03-22T10:27:50.365Z,8.97
2018-03-22T10:30:19.403Z,8.80
2018-03-22T10:32:48.607Z,8.37
2018-03-22T10:35:28.586Z,10.00
2018-03-22T10:38:00.227Z,9.20
2018-03-22T10:40:33.107Z,9.00
2018-03-22T10:43:02.140Z,8.40
2018-03-22T10:45:36.806Z,9.07
2018-03-22T10:48:07.356Z,9.27
2018-03-22T10:50:37.193Z,10.05
2018-03-22T10:53:09.691Z,9.70
2018-03-22T10:55:38.719Z,9.03
2018-03-22T11:03:25.374Z,9.18
2018-03-22T11:05:57.066Z,8.50
2018-03-22T11:08:26.923Z,8.97
2018-03-22T11:10:57.209Z,9.63
2018-03-22T11:13:27.383Z,8.60
2018-03-22T11:15:56.711Z,8.95
2018-03-22T11:18:29.784Z,9.27
2018-03-22T11:20:59.504Z,8.80
2018-03-22T11:23:29.435Z,8.50
2018-03-22T11:26:00.107Z,8.80
2018-03-22T11:28:31.549Z,8.67
2018-03-22T11:31:03.467Z,8.50
2018-03-22T11:33:33.500Z,9.17
2018-03-22T11:36:12.398Z,8.80
2018-03-22T11:38:54.000Z,8.70
2018-03-22T11:43:59.397Z,7.50
2018-03-22T11:46:28.436Z,7.20
2018-03-22T11:48:58.175Z,7.87
2018-03-22T11:51:27.223Z,6.90
2018-03-22T11:53:59.279Z,8.73
2018-03-22T11:56:29.861Z,8.30
2018-03-22T11:58:58.888Z,7.03
2018-03-22T12:01:28.995Z,7.27
2018-03-22T12:03:58.078Z,6.10
2018-03-22T12:06:27.128Z,7.00
2018-03-22T12:08:56.442Z,8.07
2018-03-22T12:11:25.499Z,7.30
2018-03-22T12:13:56.410Z,7.70
2018-03-22T12:19:01.472Z,7.50
2018-03-22T12:21:30.507Z,7.53
2018-03-22T12:24:00.376Z,6.90
2018-03-22T12:26:29.388Z,6.13
2018-03-22T12:28:59.313Z,5.43
2018-03-22T12:31:28.351Z,5.17
2018-03-22T12:33:58.043Z,5.28
2018-03-22T12:36:36.805Z,5.53
2018-03-22T12:39:15.023Z,5.47
2018-03-22T12:41:44.520Z,5.10
2018-03-22T12:44:15.412Z,5.03
2018-03-22T12:46:49.480Z,5.93
2018-03-22T12:49:20.524Z,5.57
2018-03-22T12:51:49.567Z,5.53
2018-03-22T12:54:19.560Z,5.33
2018-03-22T12:56:48.575Z,5.40
2018-03-22T13:01:54.707Z,5.32
2018-03-22T13:04:33.297Z,5.10
2018-03-22T13:07:02.342Z,5.03
2018-03-22T13:09:34.003Z,5.80
2018-03-22T13:12:04.198Z,6.17
2018-03-22T13:14:38.524Z,5.50
2018-03-22T13:17:07.554Z,6.90
2018-03-22T13:22:16.162Z,6.80
2018-03-22T13:24:50.438Z,5.57
2018-03-22T13:29:54.837Z,7.10
2018-03-22T13:32:25.083Z,6.63
2018-03-22T13:37:33.484Z,6.82
2018-03-22T13:40:05.377Z,5.60
2018-03-22T13:42:37.491Z,7.07
2018-03-22T13:45:10.189Z,6.67
2018-03-22T13:50:18.831Z,6.75
2018-03-22T13:52:49.812Z,6.30
2018-03-22T13:55:18.831Z,6.20
2018-03-22T14:00:25.125Z,6.93
2018-03-22T14:02:56.040Z,7.23
2018-03-22T14:05:25.067Z,7.30
2018-03-22T14:07:56.857Z,6.77
2018-03-22T14:10:25.883Z,6.30
2018-03-22T14:12:59.254Z,6.65
2018-03-22T14:15:29.572Z,6.27
2018-03-22T14:17:59.083Z,6.30
2018-03-22T14:20:28.149Z,6.93
2018-03-22T14:22:57.565Z,6.93
2018-03-22T14:25:26.711Z,5.93
2018-03-22T14:27:56.019Z,6.65
2018-03-22T14:30:28.181Z,6.20
2018-03-22T14:32:57.226Z,5.77
2018-03-22T14:35:26.679Z,7.18
2018-03-22T14:37:57.376Z,6.57
2018-03-22T14:40:27.298Z,6.40
2018-03-22T14:43:00.400Z,6.57
2018-03-22T14:45:29.436Z,6.80
2018-03-22T14:47:59.319Z,6.07
2018-03-22T14:50:28.334Z,6.70
2018-03-22T14:52:58.411Z,6.37
2018-03-22T14:55:31.427Z,7.10
2018-03-22T14:58:03.929Z,5.60
2018-03-22T15:00:36.227Z,6.30
2018-03-22T15:03:07.856Z,6.80
2018-03-22T15:05:39.156Z,7.60
2018-03-22T15:08:13.149Z,6.30
2018-03-22T15:10:43.992Z,6.30
2018-03-22T15:13:13.993Z,6.10
2018-03-22T15:15:47.512Z,6.00
2018-03-22T15:18:18.790Z,7.03
2018-03-22T15:20:47.841Z,7.53
2018-03-22T15:25:54.172Z,7.07
2018-03-22T15:28:25.119Z,6.23
2018-03-22T15:30:56.243Z,6.50
2018-03-22T15:36:00.518Z,7.70
2018-03-22T15:38:32.372Z,7.90
2018-03-22T15:41:07.267Z,7.70
2018-03-22T15:43:38.222Z,7.90
2018-03-22T15:48:43.535Z,7.90
2018-03-22T15:51:12.549Z,7.37
2018-03-22T15:53:43.315Z,8.00
2018-03-22T15:56:16.629Z,7.43
2018-03-22T15:58:47.560Z,8.50
2018-03-22T16:01:20.430Z,9.48
2018-03-22T16:03:51.154Z,9.43
2018-03-22T16:06:25.484Z,9.27
2018-03-22T16:09:10.114Z,8.77
2018-03-22T16:11:39.127Z,9.23
2018-03-22T16:14:32.372Z,10.48
2018-03-22T16:17:09.632Z,9.67
2018-03-22T16:19:38.755Z,8.73
2018-03-22T16:22:10.212Z,10.48
2018-03-22T16:24:43.069Z,10.37
2018-03-22T16:27:14.036Z,9.67
2018-03-22T16:29:44.715Z,8.47
2018-03-22T16:32:15.399Z,10.20
2018-03-22T16:34:46.242Z,8.90
2018-03-22T16:37:15.345Z,10.15
2018-03-22T16:39:48.003Z,9.60
2018-03-22T16:42:17.307Z,8.07
2018-03-22T16:44:46.350Z,9.80
2018-03-22T16:47:15.673Z,8.27
2018-03-22T16:49:44.718Z,11.12
2018-03-22T16:52:14.524Z,9.40
2018-03-22T16:54:43.551Z,12.07
2018-03-22T16:57:12.613Z,11.35
2018-03-22T16:59:41.648Z,9.90
2018-03-22T17:02:10.704Z,11.93
2018-03-22T17:04:50.376Z,11.75
2018-03-22T17:07:20.030Z,13.30
2018-03-22T17:09:54.819Z,11.63
2018-03-22T17:12:24.950Z,11.77
2018-03-22T17:15:03.783Z,9.37
2018-03-22T17:17:32.808Z,12.50
2018-03-22T17:20:02.786Z,10.97
2018-03-22T17:22:32.340Z,13.18
2018-03-22T17:27:41.064Z,14.50
2018-03-22T17:30:11.346Z,12.37
2018-03-22T17:32:40.389Z,14.45
2018-03-22T17:35:09.448Z,12.40
2018-03-22T17:37:40.141Z,14.73
2018-03-22T17:40:13.684Z,16.02
2018-03-22T17:42:42.935Z,14.27
2018-03-22T17:45:12.068Z,15.57
2018-03-22T17:50:23.188Z,15.52
2018-03-22T17:55:37.588Z,13.60
2018-03-22T17:58:06.646Z,11.13
2018-03-22T18:00:35.848Z,12.82
2018-03-22T18:03:04.875Z,13.27
2018-03-22T18:08:09.120Z,12.82
2018-03-22T18:10:38.183Z,11.17
2018-03-22T18:13:07.241Z,12.57
2018-03-22T18:15:36.337Z,12.65
2018-03-22T18:18:05.607Z,9.80
2018-03-22T18:20:34.662Z,11.05
2018-03-22T18:23:03.723Z,11.77
2018-03-22T18:25:32.781Z,11.40
2018-03-22T18:28:01.947Z,9.90
2018-03-22T18:30:31.272Z,11.98
2018-03-22T18:33:00.326Z,12.07
2018-03-22T18:35:29.404Z,10.03
2018-03-22T18:37:58.481Z,12.75
2018-03-22T18:40:27.536Z,11.37
2018-03-22T18:42:56.715Z,12.52
2018-03-22T18:45:25.747Z,11.63
2018-03-22T18:47:55.160Z,10.63
2018-03-22T18:50:24.238Z,12.82
2018-03-22T18:52:56.709Z,13.60
2018-03-22T18:55:25.754Z,11.00
2018-03-22T18:57:54.792Z,13.20
2018-03-22T19:00:23.996Z,12.10
2018-03-22T19:02:53.043Z,13.60
2018-03-22T19:08:00.796Z,13.80
2018-03-22T19:10:30.830Z,10.83
2018-03-22T19:13:01.852Z,13.93
2018-03-22T19:15:42.404Z,12.13
2018-03-22T19:18:11.446Z,14.63
2018-03-22T19:20:47.543Z,15.68
2018-03-22T19:23:18.764Z,13.33
2018-03-22T19:25:48.903Z,16.52
2018-03-22T19:28:17.965Z,15.35
2018-03-22T19:30:47.971Z,12.63
2018-03-22T19:33:17.021Z,16.20
2018-03-22T19:35:46.336Z,15.73
2018-03-22T19:38:15.741Z,14.73
2018-03-22T19:40:56.952Z,15.95
2018-03-22T19:51:11.719Z,16.48
2018-03-22T19:56:27.933Z,16.73
2018-03-22T19:58:59.036Z,16.90
2018-03-22T20:04:04.255Z,16.48
2018-03-22T20:06:33.310Z,13.60
2018-03-22T20:09:02.448Z,17.23
2018-03-22T20:11:31.499Z,14.77
2018-03-22T20:14:01.516Z,16.52
2018-03-22T20:16:35.124Z,17.30
2018-03-22T20:19:04.163Z,13.90
2018-03-22T20:21:33.232Z,16.40
2018-03-22T20:24:02.398Z,16.62
2018-03-22T20:29:07.607Z,17.42
2018-03-22T20:31:38.701Z,16.50
2018-03-22T20:34:07.762Z,12.27
2018-03-22T20:39:17.591Z,15.80
2018-03-22T20:41:52.468Z,13.60
2018-03-22T20:47:00.479Z,15.10
2018-03-22T20:49:32.876Z,13.13
2018-03-22T20:52:02.045Z,15.57
2018-03-22T20:54:31.979Z,15.02
2018-03-22T20:57:01.040Z,12.43
2018-03-22T20:59:30.179Z,15.30
2018-03-22T21:01:59.216Z,16.35
2018-03-22T21:04:30.191Z,13.07
2018-03-22T21:06:59.243Z,15.80
2018-03-22T21:09:36.683Z,15.68
2018-03-22T21:12:05.722Z,16.10
2018-03-22T21:14:34.797Z,13.00
2018-03-22T21:17:03.847Z,16.40
2018-03-22T21:19:33.891Z,14.30
2018-03-22T21:22:02.990Z,15.82
2018-03-22T21:24:34.416Z,14.47
2018-03-22T21:27:03.452Z,18.02
2018-03-22T21:29:52.319Z,17.80
2018-03-22T21:32:28.651Z,15.07
2018-03-22T21:34:57.699Z,18.50
2018-03-22T21:37:26.745Z,18.17
2018-03-22T21:39:56.697Z,16.00
2018-03-22T21:42:39.863Z,18.62
2018-03-22T21:45:08.912Z,14.90
2018-03-22T21:47:47.152Z,18.02
2018-03-22T21:50:16.200Z,19.80
2018-03-22T21:52:52.897Z,15.60
2018-03-22T21:55:21.928Z,17.65
2018-03-22T21:57:51.023Z,15.57
2018-03-22T22:00:20.090Z,18.90
2018-03-22T22:05:27.280Z,20.62
2018-03-22T22:07:56.326Z,18.13
2018-03-22T22:10:25.576Z,21.17
2018-03-22T22:15:30.079Z,22.40
2018-03-22T22:17:59.193Z,18.30
2018-03-22T22:20:28.262Z,22.23
2018-03-22T22:25:15.252Z,22.77
2018-03-22T22:27:49.723Z,18.60
2018-03-22T22:30:18.838Z,23.05
2018-03-22T22:32:47.888Z,23.92
2018-03-22T22:35:16.938Z,18.47
2018-03-22T22:37:46.018Z,22.77
2018-03-22T22:40:15.267Z,22.30
2018-03-22T22:42:44.298Z,17.07
2018-03-22T22:45:13.375Z,21.42
2018-03-22T22:47:44.429Z,23.80
2018-03-22T22:50:13.495Z,18.27
2018-03-22T22:52:42.531Z,22.45
2018-03-22T22:55:11.579Z,17.33
2018-03-22T22:57:40.631Z,21.30
2018-03-22T23:00:13.607Z,23.08
2018-03-22T23:02:42.664Z,17.30
2018-03-22T23:05:11.715Z,20.73
2018-03-22T23:07:40.795Z,20.50
2018-03-22T23:10:09.848Z,16.60
2018-03-22T23:12:39.825Z,18.92
2018-03-22T23:15:08.907Z,19.02
2018-03-22T23:17:38.057Z,15.00
2018-03-22T23:20:07.120Z,18.62
2018-03-22T23:22:36.165Z,19.80
2018-03-22T23:27:52.529Z,18.85
2018-03-22T23:30:21.571Z,15.67
2018-03-22T23:35:27.581Z,20.35
2018-03-22T23:37:56.648Z,18.17
2018-03-22T23:40:25.699Z,20.90
2018-03-22T23:42:54.763Z,16.50
2018-03-22T23:45:24.022Z,21.98
2018-03-22T23:47:53.043Z,21.40
2018-03-22T23:50:22.092Z,17.07
2018-03-22T23:52:51.338Z,21.73
2018-03-22T23:55:20.511Z,18.10
2018-03-22T23:57:49.544Z,23.20
